sensor_id;sensor_type;location;lat;lon;timestamp;pressure;altitude;pressure_sealevel;temperature;humidity
63281;BME280;49406;51.044;3.766;2023-06-10T00:01:20;101292.68;;;21.92;63.96
63281;BME280;49406;51.044;3.766;2023-06-10T00:03:56;101286.14;;;21.85;63.88
63281;BME280;49406;51.044;3.766;2023-06-10T00:06:30;101288.93;;;21.80;64.14
63281;BME280;49406;51.044;3.766;2023-06-10T00:09:08;101296.48;;;21.73;64.36
63281;BME280;49406;51.044;3.766;2023-06-10T00:11:44;101300.88;;;21.69;64.63
63281;BME280;49406;51.044;3.766;2023-06-10T00:14:19;101300.77;;;21.66;64.65
63281;BME280;49406;51.044;3.766;2023-06-10T00:16:53;101295.83;;;21.59;64.94
63281;BME280;49406;51.044;3.766;2023-06-10T00:19:28;101298.67;;;21.54;65.08
63281;BME280;49406;51.044;3.766;2023-06-10T00:22:03;101294.45;;;21.46;65.30
63281;BME280;49406;51.044;3.766;2023-06-10T00:24:38;101301.33;;;21.47;65.34
63281;BME280;49406;51.044;3.766;2023-06-10T00:27:12;101300.89;;;21.45;65.60
63281;BME280;49406;51.044;3.766;2023-06-10T00:29:47;101298.85;;;21.41;65.41
63281;BME280;49406;51.044;3.766;2023-06-10T00:32:21;101305.08;;;21.42;65.10
63281;BME280;49406;51.044;3.766;2023-06-10T00:34:56;101300.73;;;21.38;65.35
63281;BME280;49406;51.044;3.766;2023-06-10T00:37:31;101305.64;;;21.35;65.60
63281;BME280;49406;51.044;3.766;2023-06-10T00:40:09;101304.27;;;21.33;65.36
63281;BME280;49406;51.044;3.766;2023-06-10T00:42:44;101303.97;;;21.30;65.34
63281;BME280;49406;51.044;3.766;2023-06-10T00:45:19;101306.41;;;21.26;65.68
63281;BME280;49406;51.044;3.766;2023-06-10T00:47:53;101309.48;;;21.24;65.73
63281;BME280;49406;51.044;3.766;2023-06-10T00:50:28;101304.00;;;21.22;65.67
63281;BME280;49406;51.044;3.766;2023-06-10T00:53:04;101302.11;;;21.20;65.97
63281;BME280;49406;51.044;3.766;2023-06-10T00:55:41;101302.55;;;21.17;66.06
63281;BME280;49406;51.044;3.766;2023-06-10T00:58:16;101304.20;;;21.15;66.16
63281;BME280;49406;51.044;3.766;2023-06-10T01:00:51;101304.33;;;21.11;66.19
63281;BME280;49406;51.044;3.766;2023-06-10T01:03:26;101300.83;;;21.03;66.34
63281;BME280;49406;51.044;3.766;2023-06-10T01:06:06;101300.10;;;20.96;66.54
63281;BME280;49406;51.044;3.766;2023-06-10T01:08:52;101302.67;;;20.94;66.74
63281;BME280;49406;51.044;3.766;2023-06-10T01:11:36;101303.13;;;20.90;67.22
63281;BME280;49406;51.044;3.766;2023-06-10T01:14:15;101303.44;;;20.86;67.52
63281;BME280;49406;51.044;3.766;2023-06-10T01:16:51;101305.28;;;20.83;67.91
63281;BME280;49406;51.044;3.766;2023-06-10T01:19:26;101308.08;;;20.78;68.17
63281;BME280;49406;51.044;3.766;2023-06-10T01:22:01;101306.77;;;20.73;68.52
63281;BME280;49406;51.044;3.766;2023-06-10T01:24:36;101302.44;;;20.70;68.63
63281;BME280;49406;51.044;3.766;2023-06-10T01:27:14;101302.17;;;20.66;69.02
63281;BME280;49406;51.044;3.766;2023-06-10T01:29:54;101303.46;;;20.64;68.88
63281;BME280;49406;51.044;3.766;2023-06-10T01:32:34;101304.95;;;20.61;68.94
63281;BME280;49406;51.044;3.766;2023-06-10T01:35:12;101305.64;;;20.56;69.18
63281;BME280;49406;51.044;3.766;2023-06-10T01:37:46;101305.27;;;20.49;69.57
63281;BME280;49406;51.044;3.766;2023-06-10T01:40:23;101302.17;;;20.45;69.70
63281;BME280;49406;51.044;3.766;2023-06-10T01:42:58;101306.91;;;20.40;69.81
63281;BME280;49406;51.044;3.766;2023-06-10T01:45:32;101306.38;;;20.32;69.78
63281;BME280;49406;51.044;3.766;2023-06-10T01:48:07;101302.33;;;20.24;70.14
63281;BME280;49406;51.044;3.766;2023-06-10T01:50:42;101303.06;;;20.15;70.79
63281;BME280;49406;51.044;3.766;2023-06-10T01:53:17;101304.95;;;20.10;71.43
63281;BME280;49406;51.044;3.766;2023-06-10T01:55:51;101303.43;;;20.07;71.76
63281;BME280;49406;51.044;3.766;2023-06-10T01:58:26;101307.55;;;20.05;72.42
63281;BME280;49406;51.044;3.766;2023-06-10T02:01:01;101308.02;;;20.01;72.47
63281;BME280;49406;51.044;3.766;2023-06-10T02:03:35;101301.40;;;19.96;72.66
63281;BME280;49406;51.044;3.766;2023-06-10T02:06:10;101306.10;;;19.92;72.90
63281;BME280;49406;51.044;3.766;2023-06-10T02:08:45;101305.56;;;19.85;72.92
63281;BME280;49406;51.044;3.766;2023-06-10T02:11:19;101306.61;;;19.77;73.63
63281;BME280;49406;51.044;3.766;2023-06-10T02:13:54;101303.98;;;19.68;73.89
63281;BME280;49406;51.044;3.766;2023-06-10T02:16:28;101309.05;;;19.63;74.45
63281;BME280;49406;51.044;3.766;2023-06-10T02:19:03;101309.73;;;19.56;74.89
63281;BME280;49406;51.044;3.766;2023-06-10T02:21:39;101313.09;;;19.47;75.15
63281;BME280;49406;51.044;3.766;2023-06-10T02:24:14;101310.73;;;19.42;75.62
63281;BME280;49406;51.044;3.766;2023-06-10T02:26:49;101310.02;;;19.42;75.37
63281;BME280;49406;51.044;3.766;2023-06-10T02:29:25;101316.05;;;19.34;76.53
63281;BME280;49406;51.044;3.766;2023-06-10T02:32:00;101317.15;;;19.32;77.08
63281;BME280;49406;51.044;3.766;2023-06-10T02:34:35;101317.52;;;19.30;76.65
63281;BME280;49406;51.044;3.766;2023-06-10T02:37:10;101314.92;;;19.18;77.03
63281;BME280;49406;51.044;3.766;2023-06-10T02:39:44;101319.05;;;19.07;77.81
63281;BME280;49406;51.044;3.766;2023-06-10T02:42:19;101315.33;;;18.98;78.34
63281;BME280;49406;51.044;3.766;2023-06-10T02:44:54;101319.96;;;18.87;78.86
63281;BME280;49406;51.044;3.766;2023-06-10T02:47:28;101321.57;;;18.76;79.47
63281;BME280;49406;51.044;3.766;2023-06-10T02:50:03;101319.45;;;18.66;80.18
63281;BME280;49406;51.044;3.766;2023-06-10T02:52:38;101318.36;;;18.56;80.73
63281;BME280;49406;51.044;3.766;2023-06-10T02:55:12;101322.02;;;18.50;81.73
63281;BME280;49406;51.044;3.766;2023-06-10T02:57:47;101319.80;;;18.44;81.92
63281;BME280;49406;51.044;3.766;2023-06-10T03:00:22;101317.50;;;18.34;82.24
63281;BME280;49406;51.044;3.766;2023-06-10T03:02:57;101322.55;;;18.26;82.94
63281;BME280;49406;51.044;3.766;2023-06-10T03:05:35;101321.80;;;18.19;83.27
63281;BME280;49406;51.044;3.766;2023-06-10T03:08:10;101323.01;;;18.09;83.79
63281;BME280;49406;51.044;3.766;2023-06-10T03:10:45;101322.77;;;18.03;84.68
63281;BME280;49406;51.044;3.766;2023-06-10T03:13:19;101322.05;;;18.02;85.28
63281;BME280;49406;51.044;3.766;2023-06-10T03:15:54;101319.67;;;18.07;85.16
63281;BME280;49406;51.044;3.766;2023-06-10T03:18:29;101319.87;;;18.06;85.18
63281;BME280;49406;51.044;3.766;2023-06-10T03:21:03;101316.77;;;18.01;85.47
63281;BME280;49406;51.044;3.766;2023-06-10T03:23:39;101318.77;;;17.98;85.85
63281;BME280;49406;51.044;3.766;2023-06-10T03:26:14;101318.60;;;17.96;86.46
63281;BME280;49406;51.044;3.766;2023-06-10T03:28:49;101325.16;;;17.94;87.30
63281;BME280;49406;51.044;3.766;2023-06-10T03:31:23;101326.98;;;17.92;87.35
63281;BME280;49406;51.044;3.766;2023-06-10T03:33:58;101327.52;;;17.92;87.53
63281;BME280;49406;51.044;3.766;2023-06-10T03:36:33;101326.38;;;17.85;87.78
63281;BME280;49406;51.044;3.766;2023-06-10T03:39:10;101327.14;;;17.82;88.03
63281;BME280;49406;51.044;3.766;2023-06-10T03:41:45;101326.31;;;17.77;88.08
63281;BME280;49406;51.044;3.766;2023-06-10T03:44:19;101330.94;;;17.75;88.74
63281;BME280;49406;51.044;3.766;2023-06-10T03:46:54;101330.96;;;17.72;89.12
63281;BME280;49406;51.044;3.766;2023-06-10T03:49:29;101334.72;;;17.69;89.19
63281;BME280;49406;51.044;3.766;2023-06-10T03:52:04;101332.61;;;17.67;90.22
63281;BME280;49406;51.044;3.766;2023-06-10T03:54:39;101332.23;;;17.70;89.90
63281;BME280;49406;51.044;3.766;2023-06-10T03:57:13;101335.81;;;17.82;89.88
63281;BME280;49406;51.044;3.766;2023-06-10T03:59:48;101334.20;;;17.83;89.67
63281;BME280;49406;51.044;3.766;2023-06-10T04:02:22;101336.86;;;17.82;90.01
63281;BME280;49406;51.044;3.766;2023-06-10T04:04:57;101341.63;;;17.83;90.22
63281;BME280;49406;51.044;3.766;2023-06-10T04:07:32;101336.42;;;17.88;91.87
63281;BME280;49406;51.044;3.766;2023-06-10T04:10:09;101342.83;;;17.96;91.95
63281;BME280;49406;51.044;3.766;2023-06-10T04:12:44;101346.24;;;18.05;91.89
63281;BME280;49406;51.044;3.766;2023-06-10T04:15:18;101344.29;;;18.18;91.29
63281;BME280;49406;51.044;3.766;2023-06-10T04:17:53;101349.79;;;18.28;90.67
63281;BME280;49406;51.044;3.766;2023-06-10T04:20:28;101350.56;;;18.36;90.84
63281;BME280;49406;51.044;3.766;2023-06-10T04:23:03;101351.96;;;18.47;90.81
63281;BME280;49406;51.044;3.766;2023-06-10T04:25:38;101354.27;;;18.70;89.72
63281;BME280;49406;51.044;3.766;2023-06-10T04:28:12;101359.15;;;18.85;89.20
63281;BME280;49406;51.044;3.766;2023-06-10T04:30:47;101361.02;;;18.89;88.97
63281;BME280;49406;51.044;3.766;2023-06-10T04:33:22;101360.20;;;18.95;88.90
63281;BME280;49406;51.044;3.766;2023-06-10T04:35:57;101365.17;;;19.05;88.40
63281;BME280;49406;51.044;3.766;2023-06-10T04:38:31;101364.11;;;19.23;87.48
63281;BME280;49406;51.044;3.766;2023-06-10T04:41:06;101368.13;;;19.35;86.68
63281;BME280;49406;51.044;3.766;2023-06-10T04:43:41;101369.44;;;19.40;86.72
63281;BME280;49406;51.044;3.766;2023-06-10T04:46:15;101369.73;;;19.43;86.60
63281;BME280;49406;51.044;3.766;2023-06-10T04:48:50;101371.23;;;19.48;86.51
63281;BME280;49406;51.044;3.766;2023-06-10T04:51:25;101374.98;;;19.57;85.96
63281;BME280;49406;51.044;3.766;2023-06-10T04:53:59;101378.99;;;19.69;85.53
63281;BME280;49406;51.044;3.766;2023-06-10T04:56:35;101378.97;;;19.71;85.42
63281;BME280;49406;51.044;3.766;2023-06-10T04:59:10;101377.46;;;19.74;85.44
63281;BME280;49406;51.044;3.766;2023-06-10T05:01:45;101374.31;;;19.80;84.94
63281;BME280;49406;51.044;3.766;2023-06-10T05:04:19;101371.74;;;19.85;84.80
63281;BME280;49406;51.044;3.766;2023-06-10T05:06:54;101370.93;;;19.97;84.16
63281;BME280;49406;51.044;3.766;2023-06-10T05:09:29;101372.10;;;20.08;83.85
63281;BME280;49406;51.044;3.766;2023-06-10T05:12:05;101374.38;;;20.09;83.76
63281;BME280;49406;51.044;3.766;2023-06-10T05:14:40;101374.99;;;20.13;83.34
63281;BME280;49406;51.044;3.766;2023-06-10T05:17:14;101373.80;;;20.20;82.96
63281;BME280;49406;51.044;3.766;2023-06-10T05:19:49;101369.98;;;20.31;82.72
63281;BME280;49406;51.044;3.766;2023-06-10T05:22:22;101362.97;;;20.42;82.37
63281;BME280;49406;51.044;3.766;2023-06-10T05:24:58;101370.58;;;20.59;81.37
63281;BME280;49406;51.044;3.766;2023-06-10T05:27:32;101369.75;;;20.63;81.12
63281;BME280;49406;51.044;3.766;2023-06-10T05:30:09;101374.09;;;20.88;80.39
63281;BME280;49406;51.044;3.766;2023-06-10T05:32:44;101376.11;;;21.32;78.06
63281;BME280;49406;51.044;3.766;2023-06-10T05:35:18;101373.52;;;21.73;76.20
63281;BME280;49406;51.044;3.766;2023-06-10T05:37:53;101379.41;;;22.15;73.83
63281;BME280;49406;51.044;3.766;2023-06-10T05:40:28;101375.21;;;22.45;72.17
63281;BME280;49406;51.044;3.766;2023-06-10T05:43:02;101375.29;;;22.76;70.71
63281;BME280;49406;51.044;3.766;2023-06-10T05:45:37;101375.14;;;23.01;69.32
63281;BME280;49406;51.044;3.766;2023-06-10T05:48:13;101378.27;;;23.29;68.37
63281;BME280;49406;51.044;3.766;2023-06-10T05:50:48;101384.35;;;23.57;67.72
63281;BME280;49406;51.044;3.766;2023-06-10T05:53:22;101382.45;;;23.94;66.40
63281;BME280;49406;51.044;3.766;2023-06-10T05:55:57;101384.09;;;24.16;64.54
63281;BME280;49406;51.044;3.766;2023-06-10T05:58:32;101382.64;;;24.20;64.01
63281;BME280;49406;51.044;3.766;2023-06-10T06:01:06;101384.90;;;24.31;63.15
63281;BME280;49406;51.044;3.766;2023-06-10T06:03:41;101385.59;;;24.42;61.98
63281;BME280;49406;51.044;3.766;2023-06-10T06:06:15;101384.88;;;24.59;62.24
63281;BME280;49406;51.044;3.766;2023-06-10T06:08:51;101384.73;;;24.79;61.15
63281;BME280;49406;51.044;3.766;2023-06-10T06:11:26;101387.05;;;25.00;61.04
63281;BME280;49406;51.044;3.766;2023-06-10T06:14:00;101387.20;;;25.26;59.65
63281;BME280;49406;51.044;3.766;2023-06-10T06:16:35;101391.73;;;25.41;58.67
63281;BME280;49406;51.044;3.766;2023-06-10T06:19:10;101390.65;;;25.57;58.34
63281;BME280;49406;51.044;3.766;2023-06-10T06:21:44;101393.19;;;25.80;57.58
63281;BME280;49406;51.044;3.766;2023-06-10T06:24:19;101391.65;;;25.93;56.41
63281;BME280;49406;51.044;3.766;2023-06-10T06:26:53;101390.30;;;25.99;55.79
63281;BME280;49406;51.044;3.766;2023-06-10T06:29:28;101397.76;;;26.04;55.46
63281;BME280;49406;51.044;3.766;2023-06-10T06:32:04;101394.27;;;26.13;55.40
63281;BME280;49406;51.044;3.766;2023-06-10T06:34:39;101396.57;;;26.22;54.62
63281;BME280;49406;51.044;3.766;2023-06-10T06:37:14;101394.50;;;26.24;53.81
63281;BME280;49406;51.044;3.766;2023-06-10T06:39:48;101396.45;;;26.35;53.58
63281;BME280;49406;51.044;3.766;2023-06-10T06:42:23;101391.60;;;26.43;53.16
63281;BME280;49406;51.044;3.766;2023-06-10T06:44:57;101391.17;;;26.48;52.59
63281;BME280;49406;51.044;3.766;2023-06-10T06:47:32;101394.23;;;26.45;51.69
63281;BME280;49406;51.044;3.766;2023-06-10T06:50:08;101392.92;;;26.56;52.13
63281;BME280;49406;51.044;3.766;2023-06-10T06:52:42;101399.45;;;26.87;52.28
63281;BME280;49406;51.044;3.766;2023-06-10T06:55:17;101405.82;;;26.99;50.15
63281;BME280;49406;51.044;3.766;2023-06-10T06:57:52;101407.48;;;26.95;50.17
63281;BME280;49406;51.044;3.766;2023-06-10T07:00:26;101409.15;;;26.83;50.02
63281;BME280;49406;51.044;3.766;2023-06-10T07:03:01;101406.82;;;26.87;50.33
63281;BME280;49406;51.044;3.766;2023-06-10T07:05:36;101406.23;;;27.01;50.98
63281;BME280;49406;51.044;3.766;2023-06-10T07:08:10;101408.70;;;27.40;50.68
63281;BME280;49406;51.044;3.766;2023-06-10T07:10:45;101413.17;;;27.74;50.06
63281;BME280;49406;51.044;3.766;2023-06-10T07:13:19;101409.86;;;27.96;49.36
63281;BME280;49406;51.044;3.766;2023-06-10T07:15:54;101411.58;;;28.13;48.11
63281;BME280;49406;51.044;3.766;2023-06-10T07:18:29;101415.87;;;28.20;47.44
63281;BME280;49406;51.044;3.766;2023-06-10T07:21:03;101412.73;;;28.21;47.12
63281;BME280;49406;51.044;3.766;2023-06-10T07:23:38;101414.02;;;28.30;47.38
63281;BME280;49406;51.044;3.766;2023-06-10T07:26:16;101411.45;;;28.54;46.97
63281;BME280;49406;51.044;3.766;2023-06-10T07:28:50;101409.76;;;28.73;46.58
63281;BME280;49406;51.044;3.766;2023-06-10T07:31:23;101414.19;;;28.80;45.77
63281;BME280;49406;51.044;3.766;2023-06-10T07:33:58;101413.36;;;28.55;45.60
63281;BME280;49406;51.044;3.766;2023-06-10T07:36:33;101416.55;;;28.39;45.72
63281;BME280;49406;51.044;3.766;2023-06-10T07:39:08;101422.00;;;28.42;45.67
63281;BME280;49406;51.044;3.766;2023-06-10T07:41:43;101417.94;;;28.50;46.22
63281;BME280;49406;51.044;3.766;2023-06-10T07:44:17;101419.64;;;28.73;45.42
63281;BME280;49406;51.044;3.766;2023-06-10T07:46:52;101424.51;;;28.64;44.97
63281;BME280;49406;51.044;3.766;2023-06-10T07:49:27;101424.38;;;28.48;45.57
63281;BME280;49406;51.044;3.766;2023-06-10T07:52:01;101426.89;;;28.72;46.01
63281;BME280;49406;51.044;3.766;2023-06-10T07:54:36;101427.66;;;28.93;45.04
63281;BME280;49406;51.044;3.766;2023-06-10T07:57:11;101430.36;;;28.90;45.51
63281;BME280;49406;51.044;3.766;2023-06-10T07:59:45;101426.49;;;29.13;44.97
63281;BME280;49406;51.044;3.766;2023-06-10T08:02:20;101433.83;;;29.31;44.48
63281;BME280;49406;51.044;3.766;2023-06-10T08:04:55;101432.84;;;29.39;43.53
63281;BME280;49406;51.044;3.766;2023-06-10T08:07:29;101428.47;;;29.42;43.97
63281;BME280;49406;51.044;3.766;2023-06-10T08:10:05;101435.22;;;29.53;42.85
63281;BME280;49406;51.044;3.766;2023-06-10T08:12:39;101440.42;;;29.71;42.37
63281;BME280;49406;51.044;3.766;2023-06-10T08:15:14;101438.65;;;29.73;41.18
63281;BME280;49406;51.044;3.766;2023-06-10T08:17:49;101440.90;;;29.78;40.81
63281;BME280;49406;51.044;3.766;2023-06-10T08:20:24;101437.84;;;29.78;40.30
63281;BME280;49406;51.044;3.766;2023-06-10T08:22:59;101437.79;;;29.84;40.04
63281;BME280;49406;51.044;3.766;2023-06-10T08:25:34;101440.13;;;30.13;39.68
63281;BME280;49406;51.044;3.766;2023-06-10T08:28:08;101439.23;;;30.62;39.45
63281;BME280;49406;51.044;3.766;2023-06-10T08:30:43;101436.66;;;30.95;39.04
63281;BME280;49406;51.044;3.766;2023-06-10T08:33:17;101439.54;;;31.11;38.16
63281;BME280;49406;51.044;3.766;2023-06-10T08:35:52;101436.35;;;31.39;36.93
63281;BME280;49406;51.044;3.766;2023-06-10T08:38:26;101431.21;;;31.35;36.24
63281;BME280;49406;51.044;3.766;2023-06-10T08:41:02;101438.91;;;31.23;36.45
63281;BME280;49406;51.044;3.766;2023-06-10T08:43:42;101440.60;;;31.14;36.35
63281;BME280;49406;51.044;3.766;2023-06-10T08:46:18;101437.84;;;31.26;36.89
63281;BME280;49406;51.044;3.766;2023-06-10T08:48:56;101439.20;;;31.24;36.38
63281;BME280;49406;51.044;3.766;2023-06-10T08:51:36;101439.24;;;31.00;36.51
63281;BME280;49406;51.044;3.766;2023-06-10T08:54:11;101435.40;;;31.32;36.92
63281;BME280;49406;51.044;3.766;2023-06-10T08:56:49;101440.29;;;31.34;36.05
63281;BME280;49406;51.044;3.766;2023-06-10T08:59:25;101439.23;;;31.29;35.84
63281;BME280;49406;51.044;3.766;2023-06-10T09:01:59;101437.16;;;31.53;36.96
63281;BME280;49406;51.044;3.766;2023-06-10T09:04:35;101436.92;;;31.62;36.29
63281;BME280;49406;51.044;3.766;2023-06-10T09:07:10;101435.48;;;31.64;35.62
63281;BME280;49406;51.044;3.766;2023-06-10T09:09:45;101440.19;;;31.52;35.59
63281;BME280;49406;51.044;3.766;2023-06-10T09:12:19;101440.44;;;31.37;35.88
63281;BME280;49406;51.044;3.766;2023-06-10T09:14:54;101438.01;;;31.31;36.43
63281;BME280;49406;51.044;3.766;2023-06-10T09:17:29;101439.06;;;31.39;36.46
63281;BME280;49406;51.044;3.766;2023-06-10T09:20:04;101436.12;;;31.73;35.81
63281;BME280;49406;51.044;3.766;2023-06-10T09:22:40;101440.84;;;31.78;35.43
63281;BME280;49406;51.044;3.766;2023-06-10T09:25:15;101440.83;;;31.71;34.78
63281;BME280;49406;51.044;3.766;2023-06-10T09:27:51;101442.42;;;31.76;34.96
63281;BME280;49406;51.044;3.766;2023-06-10T09:30:29;101449.07;;;31.85;34.21
63281;BME280;49406;51.044;3.766;2023-06-10T09:33:11;101445.23;;;32.08;34.62
63281;BME280;49406;51.044;3.766;2023-06-10T09:35:50;101440.10;;;31.98;34.60
63281;BME280;49406;51.044;3.766;2023-06-10T09:38:29;101442.77;;;32.06;35.30
63281;BME280;49406;51.044;3.766;2023-06-10T09:41:04;101443.17;;;32.31;34.96
63281;BME280;49406;51.044;3.766;2023-06-10T09:43:43;101442.78;;;32.41;34.22
63281;BME280;49406;51.044;3.766;2023-06-10T09:46:20;101447.63;;;32.49;33.89
63281;BME280;49406;51.044;3.766;2023-06-10T09:48:54;101443.73;;;32.55;33.04
63281;BME280;49406;51.044;3.766;2023-06-10T09:51:29;101441.66;;;32.37;33.03
63281;BME280;49406;51.044;3.766;2023-06-10T09:54:05;101443.21;;;32.23;32.88
63281;BME280;49406;51.044;3.766;2023-06-10T09:56:39;101443.38;;;32.40;33.06
63281;BME280;49406;51.044;3.766;2023-06-10T09:59:16;101446.33;;;32.69;33.11
63281;BME280;49406;51.044;3.766;2023-06-10T10:01:57;101440.63;;;32.89;32.43
63281;BME280;49406;51.044;3.766;2023-06-10T10:04:35;101440.65;;;33.01;31.45
63281;BME280;49406;51.044;3.766;2023-06-10T10:07:10;101438.11;;;33.29;31.49
63281;BME280;49406;51.044;3.766;2023-06-10T10:09:45;101439.68;;;33.44;32.20
63281;BME280;49406;51.044;3.766;2023-06-10T10:12:20;101446.64;;;33.45;30.98
63281;BME280;49406;51.044;3.766;2023-06-10T10:14:57;101443.71;;;33.22;30.50
63281;BME280;49406;51.044;3.766;2023-06-10T10:17:31;101446.75;;;33.15;30.94
63281;BME280;49406;51.044;3.766;2023-06-10T10:20:08;101439.36;;;33.36;30.57
63281;BME280;49406;51.044;3.766;2023-06-10T10:22:48;101438.95;;;33.57;30.49
63281;BME280;49406;51.044;3.766;2023-06-10T10:25:29;101441.65;;;33.64;30.54
63281;BME280;49406;51.044;3.766;2023-06-10T10:28:10;101435.63;;;33.40;30.03
63281;BME280;49406;51.044;3.766;2023-06-10T10:30:49;101434.44;;;33.39;30.06
63281;BME280;49406;51.044;3.766;2023-06-10T10:33:27;101427.77;;;33.38;30.30
63281;BME280;49406;51.044;3.766;2023-06-10T10:36:06;101431.25;;;33.33;30.31
63281;BME280;49406;51.044;3.766;2023-06-10T10:38:41;101423.30;;;33.42;30.05
63281;BME280;49406;51.044;3.766;2023-06-10T10:41:18;101423.41;;;33.45;29.55
63281;BME280;49406;51.044;3.766;2023-06-10T10:43:54;101427.17;;;33.59;29.58
63281;BME280;49406;51.044;3.766;2023-06-10T10:46:29;101421.30;;;33.69;28.15
63281;BME280;49406;51.044;3.766;2023-06-10T10:49:04;101426.79;;;33.53;27.58
63281;BME280;49406;51.044;3.766;2023-06-10T10:51:39;101417.99;;;33.52;27.84
63281;BME280;49406;51.044;3.766;2023-06-10T10:54:32;101418.45;;;33.58;27.73
63281;BME280;49406;51.044;3.766;2023-06-10T10:57:16;101412.13;;;33.41;27.30
63281;BME280;49406;51.044;3.766;2023-06-10T10:59:56;101408.54;;;33.55;27.39
63281;BME280;49406;51.044;3.766;2023-06-10T11:02:42;101419.16;;;33.80;27.78
63281;BME280;49406;51.044;3.766;2023-06-10T11:05:17;101418.48;;;33.75;26.54
63281;BME280;49406;51.044;3.766;2023-06-10T11:07:56;101406.84;;;33.64;27.08
63281;BME280;49406;51.044;3.766;2023-06-10T11:10:35;101406.95;;;33.81;27.20
63281;BME280;49406;51.044;3.766;2023-06-10T11:13:12;101404.63;;;33.88;27.20
63281;BME280;49406;51.044;3.766;2023-06-10T11:15:49;101400.73;;;33.89;26.95
63281;BME280;49406;51.044;3.766;2023-06-10T11:18:24;101401.69;;;33.69;26.09
63281;BME280;49406;51.044;3.766;2023-06-10T11:21:01;101399.83;;;33.82;26.43
63281;BME280;49406;51.044;3.766;2023-06-10T11:23:43;101400.21;;;33.97;26.06
63281;BME280;49406;51.044;3.766;2023-06-10T11:26:30;101398.23;;;33.88;26.20
63281;BME280;49406;51.044;3.766;2023-06-10T11:29:11;101402.01;;;33.84;25.84
63281;BME280;49406;51.044;3.766;2023-06-10T11:31:52;101382.80;;;33.97;25.91
63281;BME280;49406;51.044;3.766;2023-06-10T11:34:28;101388.22;;;34.24;26.17
63281;BME280;49406;51.044;3.766;2023-06-10T11:37:02;101386.33;;;34.51;25.38
63281;BME280;49406;51.044;3.766;2023-06-10T11:39:37;101384.02;;;34.53;25.14
63281;BME280;49406;51.044;3.766;2023-06-10T11:42:12;101390.52;;;34.37;25.93
63281;BME280;49406;51.044;3.766;2023-06-10T11:44:50;101382.36;;;34.66;25.17
63281;BME280;49406;51.044;3.766;2023-06-10T11:47:25;101376.38;;;34.63;24.87
63281;BME280;49406;51.044;3.766;2023-06-10T11:50:00;101386.13;;;34.23;24.40
63281;BME280;49406;51.044;3.766;2023-06-10T11:52:34;101383.17;;;34.01;24.74
63281;BME280;49406;51.044;3.766;2023-06-10T11:55:14;101382.92;;;34.02;24.02
63281;BME280;49406;51.044;3.766;2023-06-10T11:57:49;101381.92;;;33.63;24.09
63281;BME280;49406;51.044;3.766;2023-06-10T12:00:30;101371.01;;;33.27;24.57
63281;BME280;49406;51.044;3.766;2023-06-10T12:03:05;101364.98;;;32.98;25.39
63281;BME280;49406;51.044;3.766;2023-06-10T12:05:39;101377.59;;;33.17;24.81
63281;BME280;49406;51.044;3.766;2023-06-10T12:08:14;101369.64;;;33.31;25.17
63281;BME280;49406;51.044;3.766;2023-06-10T12:10:47;101368.23;;;33.44;25.55
63281;BME280;49406;51.044;3.766;2023-06-10T12:13:22;101362.30;;;33.57;24.82
63281;BME280;49406;51.044;3.766;2023-06-10T12:16:07;101369.45;;;33.51;24.43
63281;BME280;49406;51.044;3.766;2023-06-10T12:18:43;101365.73;;;33.41;24.00
63281;BME280;49406;51.044;3.766;2023-06-10T12:21:20;101361.96;;;33.48;23.82
63281;BME280;49406;51.044;3.766;2023-06-10T12:24:06;101361.58;;;33.32;23.86
63281;BME280;49406;51.044;3.766;2023-06-10T12:26:42;101353.95;;;33.32;24.43
63281;BME280;49406;51.044;3.766;2023-06-10T12:29:19;101356.80;;;33.69;24.83
63281;BME280;49406;51.044;3.766;2023-06-10T12:32:06;101358.64;;;33.89;24.48
63281;BME280;49406;51.044;3.766;2023-06-10T12:34:41;101353.66;;;33.78;24.34
63281;BME280;49406;51.044;3.766;2023-06-10T12:37:15;101361.04;;;33.79;23.63
63281;BME280;49406;51.044;3.766;2023-06-10T12:39:53;101360.61;;;33.75;23.96
63281;BME280;49406;51.044;3.766;2023-06-10T12:42:30;101358.00;;;33.76;23.84
63281;BME280;49406;51.044;3.766;2023-06-10T12:45:08;101342.70;;;33.79;23.93
63281;BME280;49406;51.044;3.766;2023-06-10T12:47:43;101350.52;;;33.75;24.64
63281;BME280;49406;51.044;3.766;2023-06-10T12:50:18;101342.71;;;33.64;24.90
63281;BME280;49406;51.044;3.766;2023-06-10T12:52:52;101343.95;;;33.73;25.09
63281;BME280;49406;51.044;3.766;2023-06-10T12:55:27;101348.27;;;33.69;25.00
63281;BME280;49406;51.044;3.766;2023-06-10T12:58:02;101346.81;;;33.49;24.92
63281;BME280;49406;51.044;3.766;2023-06-10T13:00:37;101343.70;;;33.49;24.76
63281;BME280;49406;51.044;3.766;2023-06-10T13:03:12;101339.73;;;33.67;24.71
63281;BME280;49406;51.044;3.766;2023-06-10T13:05:46;101337.05;;;33.82;24.88
63281;BME280;49406;51.044;3.766;2023-06-10T13:08:21;101330.83;;;33.94;25.10
63281;BME280;49406;51.044;3.766;2023-06-10T13:10:56;101331.52;;;34.10;25.44
63281;BME280;49406;51.044;3.766;2023-06-10T13:13:30;101324.05;;;34.18;24.33
63281;BME280;49406;51.044;3.766;2023-06-10T13:16:05;101333.11;;;34.43;24.09
63281;BME280;49406;51.044;3.766;2023-06-10T13:18:41;101329.21;;;34.46;22.75
63281;BME280;49406;51.044;3.766;2023-06-10T13:21:15;101329.45;;;34.41;23.43
63281;BME280;49406;51.044;3.766;2023-06-10T13:23:50;101332.17;;;34.28;23.60
63281;BME280;49406;51.044;3.766;2023-06-10T13:26:25;101325.52;;;34.12;23.84
63281;BME280;49406;51.044;3.766;2023-06-10T13:29:00;101323.64;;;34.19;23.98
63281;BME280;49406;51.044;3.766;2023-06-10T13:31:34;101326.38;;;34.12;23.71
63281;BME280;49406;51.044;3.766;2023-06-10T13:34:09;101339.63;;;33.68;23.75